Time,TemperatureF,DewpointF,PressureIn,WindDirection,WindDirectionDegrees,WindSpeedMPH,WindSpeedGustMPH,Humidity,HourlyPrecipIn,Conditions,Clouds,dailyrainin,SoftwareType,DateUTC
2013-05-08 00:02:00,60.0,56.0,30.00,ENE,68,0.0,32.0,86,0.00,,,0.00,,2013-05-08 05:02:00,
2013-05-08 00:12:00,60.0,56.0,30.00,ENE,68,0.0,32.0,86,0.00,,,0.00,,2013-05-08 05:12:00,
2013-05-08 00:22:00,59.0,55.0,30.00,ENE,68,0.0,32.0,86,0.00,,,0.00,,2013-05-08 05:22:00,
2013-05-08 00:32:00,58.0,54.0,30.00,ENE,68,0.0,0.0,86,0.00,,,0.00,,2013-05-08 05:32:00,
2013-05-08 00:42:00,58.0,54.0,30.00,ENE,68,0.0,0.0,86,0.00,,,0.00,,2013-05-08 05:42:00,
2013-05-08 00:52:00,57.0,53.0,30.00,ENE,68,0.0,0.0,86,0.00,,,0.00,,2013-05-08 05:52:00,
2013-05-08 01:01:00,57.0,53.0,30.00,ENE,68,0.0,0.0,86,0.00,,,0.00,,2013-05-08 06:01:00,
2013-05-08 01:12:00,57.0,53.0,30.00,ENE,68,0.0,0.0,86,0.00,,,0.00,,2013-05-08 06:12:00,
2013-05-08 01:21:00,57.0,53.0,30.00,ENE,68,0.0,0.0,86,0.00,,,0.00,,2013-05-08 06:21:00,
2013-05-08 01:32:00,57.0,53.0,30.00,ENE,65,0.0,8.0,86,0.00,,,0.00,,2013-05-08 06:32:00,
2013-05-08 01:41:00,57.0,53.0,30.00,ENE,65,0.0,8.0,86,0.00,,,0.00,,2013-05-08 06:41:00,
2013-05-08 01:52:00,57.0,53.0,30.00,ENE,65,0.0,8.0,86,0.00,,,0.00,,2013-05-08 06:52:00,
2013-05-08 02:01:00,56.0,52.0,30.00,ENE,65,0.0,8.0,86,0.00,,,0.00,,2013-05-08 07:01:00,
2013-05-08 02:11:00,56.0,52.0,30.00,ENE,65,0.0,8.0,86,0.00,,,0.00,,2013-05-08 07:11:00,
2013-05-08 02:21:00,56.0,52.0,30.00,ENE,65,0.0,8.0,86,0.00,,,0.00,,2013-05-08 07:21:00,
2013-05-08 02:31:00,56.0,52.0,30.00,North,4,0.0,32.0,86,0.00,,,0.00,,2013-05-08 07:31:00,
2013-05-08 02:42:00,56.0,52.0,30.00,North,4,0.0,32.0,86,0.00,,,0.00,,2013-05-08 07:42:00,
2013-05-08 02:52:00,55.0,51.0,30.00,North,0,0.0,32.0,86,0.00,,,0.00,,2013-05-08 07:52:00,
2013-05-08 03:01:00,54.0,50.0,30.00,North,0,0.0,32.0,86,0.00,,,0.00,,2013-05-08 08:01:00,
2013-05-08 03:11:00,54.0,50.0,30.00,North,0,0.0,32.0,86,0.00,,,0.00,,2013-05-08 08:11:00,
2013-05-08 03:21:00,54.0,50.0,30.00,North,0,0.0,32.0,86,0.00,,,0.00,,2013-05-08 08:21:00,
2013-05-08 03:32:00,53.0,49.0,30.00,North,0,0.0,32.0,86,0.00,,,0.00,,2013-05-08 08:32:00,
2013-05-08 03:42:00,53.0,49.0,30.00,North,0,0.0,32.0,86,0.00,,,0.00,,2013-05-08 08:42:00,
2013-05-08 03:52:00,53.0,49.0,30.00,ENE,58,0.0,32.0,86,0.00,,,0.00,,2013-05-08 08:52:00,
2013-05-08 04:02:00,53.0,49.0,30.00,NNE,28,0.0,32.0,86,0.00,,,0.00,,2013-05-08 09:02:00,
2013-05-08 04:11:00,53.0,49.0,30.00,NNE,28,0.0,32.0,86,0.00,,,0.00,,2013-05-08 09:11:00,
2013-05-08 04:21:00,53.0,49.0,30.00,NNE,28,0.0,32.0,86,0.00,,,0.00,,2013-05-08 09:21:00,
2013-05-08 04:32:00,52.0,48.0,30.00,NNE,28,0.0,32.0,86,0.00,,,0.00,,2013-05-08 09:32:00,
2013-05-08 04:42:00,52.0,48.0,30.00,NNE,28,0.0,32.0,86,0.00,,,0.00,,2013-05-08 09:42:00,
2013-05-08 04:53:00,52.0,48.0,30.00,NNE,28,0.0,32.0,86,0.00,,,0.00,,2013-05-08 09:53:00,
2013-05-08 05:02:00,52.0,48.0,30.00,NNE,28,0.0,32.0,86,0.00,,,0.00,,2013-05-08 10:02:00,
2013-05-08 05:12:00,52.0,48.0,30.00,NNE,28,0.0,32.0,86,0.00,,,0.00,,2013-05-08 10:12:00,
2013-05-08 05:22:00,52.0,48.0,30.00,NNE,28,0.0,32.0,86,0.00,,,0.00,,2013-05-08 10:22:00,
2013-05-08 05:33:00,54.0,50.0,30.00,NNE,28,0.0,32.0,86,0.00,,,0.00,,2013-05-08 10:33:00,
2013-05-08 05:42:00,54.0,50.0,30.00,NNE,28,0.0,32.0,86,0.00,,,0.00,,2013-05-08 10:42:00,
2013-05-08 05:52:00,55.0,51.0,30.00,NNE,28,0.0,32.0,86,0.00,,,0.00,,2013-05-08 10:52:00,
2013-05-08 06:02:00,55.0,51.0,30.00,NNE,28,0.0,32.0,86,0.00,,,0.00,,2013-05-08 11:02:00,
2013-05-08 06:11:00,55.0,51.0,30.00,NNE,28,0.0,32.0,86,0.00,,,0.00,,2013-05-08 11:11:00,
2013-05-08 06:22:00,53.0,49.0,30.00,NNE,28,0.0,32.0,86,0.00,,,0.00,,2013-05-08 11:22:00,
2013-05-08 06:32:00,53.0,49.0,30.00,North,0,0.0,32.0,86,0.00,,,0.00,,2013-05-08 11:32:00,
2013-05-08 06:42:00,53.0,49.0,30.00,North,0,0.0,32.0,86,0.00,,,0.00,,2013-05-08 11:42:00,
2013-05-08 06:52:00,53.0,49.0,30.00,North,0,0.0,32.0,86,0.00,,,0.00,,2013-05-08 11:52:00,
2013-05-08 07:01:00,53.0,49.0,30.00,North,0,0.0,32.0,86,0.00,,,0.00,,2013-05-08 12:01:00,
2013-05-08 07:11:00,53.0,49.0,30.00,North,0,0.0,32.0,86,0.00,,,0.00,,2013-05-08 12:11:00,
2013-05-08 07:21:00,55.0,51.0,30.00,North,0,0.0,32.0,86,0.00,,,0.00,,2013-05-08 12:21:00,
2013-05-08 07:32:00,56.0,52.0,30.00,North,0,0.0,32.0,86,0.00,,,0.00,,2013-05-08 12:32:00,
2013-05-08 07:41:00,56.0,52.0,30.00,North,0,0.0,32.0,86,0.00,,,0.00,,2013-05-08 12:41:00,
2013-05-08 07:52:00,59.0,55.0,30.00,North,0,0.0,32.0,86,0.00,,,0.00,,2013-05-08 12:52:00,
2013-05-08 08:01:00,60.0,56.0,30.00,SE,146,1.0,32.0,86,0.00,,,0.00,,2013-05-08 13:01:00,
2013-05-08 08:11:00,60.0,56.0,30.00,SE,146,1.0,32.0,86,0.00,,,0.00,,2013-05-08 13:11:00,
2013-05-08 08:21:00,62.0,58.0,30.00,North,0,0.0,32.0,86,0.00,,,0.00,,2013-05-08 13:21:00,
2013-05-08 08:32:00,63.0,59.0,30.00,SSE,150,0.0,32.0,86,0.00,,,0.00,,2013-05-08 13:32:00,
2013-05-08 08:42:00,63.0,59.0,30.00,SSE,150,0.0,32.0,86,0.00,,,0.00,,2013-05-08 13:42:00,
2013-05-08 08:52:00,64.0,60.0,30.00,SSE,150,0.0,32.0,86,0.00,,,0.00,,2013-05-08 13:52:00,
2013-05-08 09:02:00,65.0,61.0,30.00,ENE,78,2.0,32.0,86,0.00,,,0.00,,2013-05-08 14:02:00,
2013-05-08 09:11:00,65.0,61.0,30.00,ENE,78,2.0,32.0,86,0.00,,,0.00,,2013-05-08 14:11:00,
2013-05-08 09:21:00,66.0,62.0,30.00,NE,56,1.0,32.0,86,0.00,,,0.00,,2013-05-08 14:21:00,
2013-05-08 09:31:00,67.0,63.0,30.00,NNE,29,1.0,32.0,86,0.00,,,0.00,,2013-05-08 14:31:00,
2013-05-08 09:42:00,67.0,63.0,30.00,NNE,29,1.0,32.0,86,0.00,,,0.00,,2013-05-08 14:42:00,
2013-05-08 09:52:00,69.0,65.0,30.00,NE,49,0.0,32.0,86,0.00,,,0.00,,2013-05-08 14:52:00,
2013-05-08 10:02:00,70.0,66.0,30.00,NE,48,0.0,32.0,86,0.00,,,0.00,,2013-05-08 15:02:00,
2013-05-08 10:11:00,70.0,66.0,30.00,NE,48,0.0,32.0,86,0.00,,,0.00,,2013-05-08 15:11:00,
2013-05-08 10:21:00,71.0,67.0,30.00,NW,310,2.0,32.0,86,0.00,,,0.00,,2013-05-08 15:21:00,
2013-05-08 10:33:00,71.0,67.0,30.00,NW,311,1.0,32.0,86,0.00,,,0.00,,2013-05-08 15:33:00,
2013-05-08 10:42:00,71.0,67.0,30.00,NW,311,1.0,32.0,86,0.00,,,0.00,,2013-05-08 15:42:00,
2013-05-08 10:53:00,73.0,69.0,30.00,NW,319,3.0,32.0,86,0.00,,,0.00,,2013-05-08 15:53:00,
2013-05-08 11:03:00,75.0,71.0,30.00,SSE,160,1.0,32.0,86,0.00,,,0.00,,2013-05-08 16:03:00,
2013-05-08 11:12:00,75.0,71.0,30.00,SSE,160,1.0,32.0,86,0.00,,,0.00,,2013-05-08 16:12:00,
2013-05-08 11:23:00,76.0,72.0,30.00,SW,229,2.0,32.0,86,0.00,,,0.00,,2013-05-08 16:23:00,
2013-05-08 11:33:00,77.0,72.0,30.00,SW,232,1.0,32.0,86,0.00,,,0.00,,2013-05-08 16:33:00,
2013-05-08 11:42:00,77.0,72.0,30.00,SW,232,1.0,32.0,86,0.00,,,0.00,,2013-05-08 16:42:00,
2013-05-08 11:52:00,77.0,72.0,30.00,South,180,1.0,32.0,86,0.00,,,0.00,,2013-05-08 16:52:00,
2013-05-08 12:02:00,78.0,73.0,30.00,NW,317,2.0,32.0,86,0.00,,,0.00,,2013-05-08 17:02:00,
2013-05-08 12:12:00,78.0,73.0,30.00,NW,317,2.0,32.0,86,0.00,,,0.00,,2013-05-08 17:12:00,
2013-05-08 12:22:00,79.0,74.0,30.00,West,268,1.0,32.0,86,0.00,,,0.00,,2013-05-08 17:22:00,
2013-05-08 12:31:00,79.0,74.0,30.00,West,268,1.0,32.0,86,0.00,,,0.00,,2013-05-08 17:31:00,
2013-05-08 12:41:00,79.0,74.0,30.00,West,268,1.0,32.0,86,0.00,,,0.00,,2013-05-08 17:41:00,
2013-05-08 12:52:00,80.0,75.0,30.00,SSE,163,1.0,32.0,86,0.00,,,0.00,,2013-05-08 17:52:00,
2013-05-08 13:02:00,80.0,75.0,30.00,West,259,5.0,32.0,86,0.00,,,0.00,,2013-05-08 18:02:00,
2013-05-08 13:11:00,80.0,75.0,30.00,West,259,5.0,32.0,86,0.00,,,0.00,,2013-05-08 18:11:00,
2013-05-08 13:21:00,78.0,73.0,30.00,WNW,291,2.0,32.0,86,0.00,,,0.00,,2013-05-08 18:21:00,
2013-05-08 13:31:00,80.0,75.0,30.00,East,89,0.0,32.0,86,0.00,,,0.00,,2013-05-08 18:31:00,
2013-05-08 13:42:00,81.0,76.0,30.00,East,101,2.0,32.0,86,0.00,,,0.00,,2013-05-08 18:42:00,
2013-05-08 13:52:00,81.0,76.0,30.00,East,101,2.0,32.0,86,0.00,,,0.00,,2013-05-08 18:52:00,
2013-05-08 14:01:00,81.0,76.0,30.00,East,101,2.0,32.0,86,0.00,,,0.00,,2013-05-08 19:01:00,
2013-05-08 14:11:00,81.0,76.0,30.00,East,101,2.0,32.0,86,0.00,,,0.00,,2013-05-08 19:11:00,
2013-05-08 14:21:00,81.0,76.0,30.00,SW,227,0.0,32.0,86,0.00,,,0.00,,2013-05-08 19:21:00,
2013-05-08 14:32:00,79.0,74.0,30.00,South,182,3.0,32.0,86,0.00,,,0.00,,2013-05-08 19:32:00,
2013-05-08 14:42:00,80.0,75.0,30.00,WSW,251,5.0,32.0,86,0.00,,,0.00,,2013-05-08 19:42:00,
2013-05-08 14:52:00,80.0,75.0,30.00,WSW,251,5.0,32.0,86,0.00,,,0.00,,2013-05-08 19:52:00,
2013-05-08 15:02:00,79.0,74.0,30.00,WNW,284,0.0,32.0,86,0.00,,,0.00,,2013-05-08 20:02:00,
2013-05-08 15:11:00,79.0,74.0,30.00,WNW,284,0.0,32.0,86,0.00,,,0.00,,2013-05-08 20:11:00,
2013-05-08 15:22:00,79.0,74.0,30.00,West,274,1.0,32.0,86,0.00,,,0.00,,2013-05-08 20:22:00,
2013-05-08 15:32:00,80.0,75.0,30.00,SW,219,1.0,32.0,86,0.00,,,0.00,,2013-05-08 20:32:00,
2013-05-08 15:42:00,80.0,75.0,30.00,NNE,14,0.0,32.0,86,0.00,,,0.00,,2013-05-08 20:42:00,
2013-05-08 15:52:00,80.0,75.0,30.00,NNE,14,0.0,32.0,86,0.00,,,0.00,,2013-05-08 20:52:00,
2013-05-08 16:01:00,78.0,73.0,30.00,North,0,0.0,32.0,86,0.00,,,0.00,,2013-05-08 21:01:00,
2013-05-08 16:11:00,78.0,73.0,30.00,ENE,57,1.0,32.0,86,0.00,,,0.00,,2013-05-08 21:11:00,
2013-05-08 16:21:00,78.0,73.0,30.00,ENE,57,1.0,32.0,86,0.00,,,0.00,,2013-05-08 21:21:00,
2013-05-08 16:33:00,78.0,73.0,30.00,WNW,291,0.0,32.0,86,0.00,,,0.00,,2013-05-08 21:33:00,
2013-05-08 16:43:00,78.0,73.0,30.00,NW,308,1.0,32.0,86,0.00,,,0.00,,2013-05-08 21:43:00,
2013-05-08 16:53:00,78.0,73.0,30.00,NW,308,1.0,32.0,86,0.00,,,0.00,,2013-05-08 21:53:00,
2013-05-08 17:02:00,78.0,73.0,30.00,NW,307,1.0,32.0,86,0.00,,,0.00,,2013-05-08 22:02:00,
2013-05-08 17:12:00,78.0,73.0,30.00,NW,320,0.0,32.0,86,0.00,,,0.00,,2013-05-08 22:12:00,
2013-05-08 17:22:00,78.0,73.0,30.00,NW,320,0.0,32.0,86,0.00,,,0.00,,2013-05-08 22:22:00,
2013-05-08 17:33:00,78.0,73.0,30.00,SW,226,2.0,32.0,86,0.00,,,0.00,,2013-05-08 22:33:00,
2013-05-08 17:42:00,79.0,74.0,30.00,SW,222,0.0,32.0,86,0.00,,,0.00,,2013-05-08 22:42:00,
2013-05-08 17:52:00,79.0,74.0,30.00,SW,222,0.0,32.0,86,0.00,,,0.00,,2013-05-08 22:52:00,
2013-05-08 18:01:00,79.0,74.0,30.00,WNW,302,0.0,32.0,86,0.00,,,0.00,,2013-05-08 23:01:00,
2013-05-08 18:11:00,78.0,73.0,30.00,West,262,1.0,32.0,86,0.00,,,0.00,,2013-05-08 23:11:00,
2013-05-08 18:22:00,78.0,73.0,30.00,West,262,1.0,32.0,86,0.00,,,0.00,,2013-05-08 23:22:00,
2013-05-08 18:32:00,77.0,72.0,30.00,WSW,242,0.0,32.0,86,0.00,,,0.00,,2013-05-08 23:32:00,
2013-05-08 18:42:00,77.0,72.0,30.00,West,261,0.0,32.0,86,0.00,,,0.00,,2013-05-08 23:42:00,
2013-05-08 18:52:00,77.0,72.0,30.00,West,261,0.0,32.0,86,0.00,,,0.00,,2013-05-08 23:52:00,
2013-05-08 19:02:00,76.0,72.0,30.00,North,8,0.0,32.0,86,0.00,,,0.00,,2013-05-09 00:02:00,
2013-05-08 19:11:00,75.0,71.0,30.00,North,8,0.0,32.0,86,0.00,,,0.00,,2013-05-09 00:11:00,
2013-05-08 19:21:00,75.0,71.0,30.00,North,8,0.0,32.0,86,0.00,,,0.00,,2013-05-09 00:21:00,
2013-05-08 19:32:00,74.0,70.0,30.00,North,8,0.0,32.0,86,0.00,,,0.00,,2013-05-09 00:32:00,
2013-05-08 19:42:00,73.0,69.0,30.00,North,8,0.0,32.0,86,0.00,,,0.00,,2013-05-09 00:42:00,
2013-05-08 19:52:00,73.0,69.0,30.00,North,8,0.0,32.0,86,0.00,,,0.00,,2013-05-09 00:52:00,
2013-05-08 20:01:00,72.0,68.0,30.00,North,8,0.0,32.0,86,0.00,,,0.00,,2013-05-09 01:01:00,
2013-05-08 20:11:00,71.0,67.0,30.00,North,8,0.0,32.0,86,0.00,,,0.00,,2013-05-09 01:11:00,
2013-05-08 20:22:00,71.0,67.0,30.00,North,8,0.0,32.0,86,0.00,,,0.00,,2013-05-09 01:22:00,
2013-05-08 20:32:00,71.0,67.0,30.00,North,8,0.0,32.0,86,0.00,,,0.00,,2013-05-09 01:32:00,
2013-05-08 20:42:00,69.0,65.0,30.00,North,8,0.0,32.0,86,0.00,,,0.00,,2013-05-09 01:42:00,
2013-05-08 20:52:00,69.0,65.0,30.00,North,8,0.0,32.0,86,0.00,,,0.00,,2013-05-09 01:52:00,
2013-05-08 21:02:00,68.0,64.0,30.00,SW,234,2.0,32.0,86,0.00,,,0.00,,2013-05-09 02:02:00,
2013-05-08 21:11:00,69.0,65.0,30.00,WNW,298,3.0,32.0,86,0.00,,,0.00,,2013-05-09 02:11:00,
2013-05-08 21:21:00,69.0,65.0,30.00,WNW,298,3.0,32.0,86,0.00,,,0.00,,2013-05-09 02:21:00,
2013-05-08 21:32:00,69.0,65.0,30.00,West,281,0.0,32.0,86,0.00,,,0.00,,2013-05-09 02:32:00,
2013-05-08 21:41:00,69.0,65.0,30.00,West,281,0.0,32.0,86,0.00,,,0.00,,2013-05-09 02:41:00,
2013-05-08 21:52:00,69.0,65.0,30.00,West,281,0.0,32.0,86,0.00,,,0.00,,2013-05-09 02:52:00,
2013-05-08 22:01:00,69.0,65.0,30.00,NW,304,0.0,32.0,86,0.00,,,0.00,,2013-05-09 03:01:00,
2013-05-08 22:11:00,68.0,64.0,30.00,NW,313,1.0,32.0,86,0.00,,,0.00,,2013-05-09 03:11:00,
2013-05-08 22:21:00,68.0,64.0,30.00,NW,313,1.0,32.0,86,0.00,,,0.00,,2013-05-09 03:21:00,
2013-05-08 22:33:00,68.0,64.0,30.00,NNE,26,2.0,32.0,86,0.00,,,0.00,,2013-05-09 03:33:00,
2013-05-08 22:43:00,67.0,63.0,30.00,NNE,25,0.0,32.0,86,0.00,,,0.00,,2013-05-09 03:43:00,
2013-05-08 22:53:00,67.0,63.0,30.00,NNE,25,0.0,32.0,86,0.00,,,0.00,,2013-05-09 03:53:00,
2013-05-08 23:03:00,67.0,63.0,30.00,ENE,73,1.0,32.0,86,0.00,,,0.00,,2013-05-09 04:03:00,
2013-05-08 23:12:00,67.0,63.0,30.00,ENE,73,1.0,32.0,86,0.00,,,0.00,,2013-05-09 04:12:00,
2013-05-08 23:23:00,66.0,62.0,30.00,NNE,26,2.0,32.0,86,0.00,,,0.00,,2013-05-09 04:23:00,
2013-05-08 23:33:00,66.0,62.0,30.00,NNE,17,2.0,32.0,86,0.00,,,0.00,,2013-05-09 04:33:00,
2013-05-08 23:43:00,66.0,62.0,30.00,NNE,17,2.0,32.0,86,0.00,,,0.00,,2013-05-09 04:43:00,
2013-05-08 23:53:00,66.0,62.0,30.00,NNE,33,1.0,32.0,86,0.00,,,0.00,,2013-05-09 04:53:00,